To: (Separate email addresses with commas)
From: (Your email address)
Message: (Optional)
Send
Cancel

Thanks!

Close

Vote: How Far Do You Need To Stay From The Clouds?

The Scenario:

You're on a local day sightseeing flight near Meeker Coulter airport. About 30 minutes into your flight, you notice that the weather is starting to deteriorate.

Your start heading back to the airport, and you pick up ASOS on the way: KEEO 191653Z AUTO 18005KT 4SM OVC019 20/11 A2996 RMK AO1

You enter the traffic pattern for runway 21 at 7,400' MSL. At 7,400', what airspace are you in, and what are your minimum weather requirements?

  1. 1
    Unchecked Checked

    Votes:

  2. 2
    Unchecked Checked

    Votes:

  3. 3
    Unchecked Checked

    Votes:

  4. 4
    Unchecked Checked

    Votes:

  5. 5
    Unchecked Checked

    Votes:

  6. 6
    Unchecked Checked

    Votes:

View The Results

Thanks for voting, now find out the answer.

Think you got it right? Click here to read the follow up article and see if you answered correctly.

Share on Facebook Share on Twitter
Pic

Colin Cutler

Colin is a Boldmethod co-founder, pilot and graphic artist. He's been a flight instructor at the University of North Dakota, an airline pilot on the CRJ-200, and has directed development of numerous commercial and military training systems. You can reach him at colin@boldmethod.com.

Recommended Stories

Latest Stories

    Load More
    Share on Facebook Share on Twitter Share via Email